createdAt,value
2019-01-21T00:00:28.796Z,0.00
2019-01-21T00:01:28.760Z,0.00
2019-01-21T00:02:28.757Z,0.00
2019-01-21T00:03:28.735Z,0.00
2019-01-21T00:04:28.724Z,0.00
2019-01-21T00:05:28.739Z,0.00
2019-01-21T00:06:28.707Z,0.00
2019-01-21T00:07:28.700Z,0.00
2019-01-21T00:08:28.681Z,0.00
2019-01-21T00:09:28.673Z,0.00
2019-01-21T00:10:28.686Z,0.00
2019-01-21T00:11:28.647Z,0.00
2019-01-21T00:12:28.639Z,0.00
2019-01-21T00:13:28.627Z,0.00
2019-01-21T00:14:28.615Z,0.00
2019-01-21T00:15:28.632Z,0.00
2019-01-21T00:16:28.594Z,0.00
2019-01-21T00:17:28.587Z,0.00
2019-01-21T00:18:28.574Z,0.00
2019-01-21T00:19:28.560Z,0.00
2019-01-21T00:20:28.585Z,0.00
2019-01-21T00:21:28.541Z,0.00
2019-01-21T00:22:28.530Z,0.00
2019-01-21T00:23:28.520Z,0.00
2019-01-21T00:24:28.509Z,0.00
2019-01-21T00:25:28.520Z,0.00
2019-01-21T00:26:28.485Z,0.00
2019-01-21T00:27:28.480Z,0.00
2019-01-21T00:28:28.466Z,0.00
2019-01-21T00:29:28.453Z,0.00
2019-01-21T00:30:28.471Z,0.00
2019-01-21T00:31:28.432Z,0.00
2019-01-21T00:32:28.426Z,0.00
2019-01-21T00:33:28.411Z,0.00
2019-01-21T00:34:28.400Z,0.00
2019-01-21T00:35:28.425Z,0.00
2019-01-21T00:36:28.379Z,0.00
2019-01-21T00:37:28.372Z,0.00
2019-01-21T00:38:28.357Z,0.00
2019-01-21T00:39:28.348Z,0.00
2019-01-21T00:40:28.361Z,0.00
2019-01-21T00:41:28.325Z,0.00
2019-01-21T00:42:28.315Z,0.00
2019-01-21T00:43:28.303Z,0.00
2019-01-21T00:44:28.317Z,0.00
2019-01-21T00:45:28.305Z,0.00
2019-01-21T00:46:28.271Z,0.00
2019-01-21T00:47:29.995Z,0.00
2019-01-21T00:48:28.251Z,0.00
2019-01-21T00:49:28.238Z,0.00
2019-01-21T00:50:28.251Z,0.00
2019-01-21T00:51:28.218Z,0.00
2019-01-21T00:52:28.207Z,0.00
2019-01-21T00:53:28.198Z,0.00
2019-01-21T00:54:28.183Z,0.00
2019-01-21T00:55:28.197Z,0.00
2019-01-21T00:56:28.166Z,0.00
2019-01-21T00:57:28.154Z,0.00
2019-01-21T00:58:28.142Z,0.00
2019-01-21T00:59:28.136Z,0.00
2019-01-21T01:00:28.145Z,0.00
2019-01-21T01:01:28.113Z,0.00
2019-01-21T01:02:28.098Z,0.00
2019-01-21T01:03:28.088Z,0.00
2019-01-21T01:04:28.077Z,0.00
2019-01-21T01:05:28.091Z,0.00
2019-01-21T01:06:28.057Z,0.00
2019-01-21T01:07:28.062Z,0.00
2019-01-21T01:08:28.034Z,0.00
2019-01-21T01:09:28.025Z,0.00
2019-01-21T01:10:28.038Z,0.00
2019-01-21T01:11:28.002Z,0.00
2019-01-21T01:12:27.991Z,0.00
2019-01-21T01:13:27.981Z,0.00
2019-01-21T01:14:27.970Z,0.00
2019-01-21T01:15:27.985Z,0.00
2019-01-21T01:16:27.948Z,0.00
2019-01-21T01:17:27.937Z,0.00
2019-01-21T01:18:27.927Z,0.00
2019-01-21T01:19:27.917Z,0.00
2019-01-21T01:20:27.932Z,0.00
2019-01-21T01:21:27.895Z,0.00
2019-01-21T01:22:27.887Z,0.00
2019-01-21T01:23:27.876Z,0.00
2019-01-21T01:24:27.866Z,0.00
2019-01-21T01:25:27.886Z,0.00
2019-01-21T01:26:27.843Z,0.00
2019-01-21T01:27:27.831Z,0.00
2019-01-21T01:28:27.825Z,0.00
2019-01-21T01:29:27.810Z,0.00
2019-01-21T01:30:27.846Z,0.00
2019-01-21T01:31:27.790Z,0.00
2019-01-21T01:32:27.780Z,0.00
2019-01-21T01:33:27.769Z,0.00
2019-01-21T01:34:27.763Z,0.00
2019-01-21T01:35:27.771Z,0.00
2019-01-21T01:36:27.738Z,0.00
2019-01-21T01:37:27.727Z,0.00
2019-01-21T01:38:27.716Z,0.00
2019-01-21T01:39:27.704Z,0.00
2019-01-21T01:40:27.733Z,0.00
2019-01-21T01:41:27.683Z,0.00
2019-01-21T01:42:27.679Z,0.00
2019-01-21T01:43:27.674Z,0.00
2019-01-21T01:44:27.651Z,0.00
2019-01-21T01:45:27.668Z,0.00
2019-01-21T01:46:27.632Z,0.00
2019-01-21T01:47:27.622Z,0.00
2019-01-21T01:48:27.614Z,0.00
2019-01-21T01:49:27.600Z,0.00
2019-01-21T01:50:27.639Z,0.00
2019-01-21T01:51:27.580Z,0.00
2019-01-21T01:52:27.569Z,0.00
2019-01-21T01:53:27.556Z,0.00
2019-01-21T01:54:27.549Z,0.00
2019-01-21T01:55:27.561Z,0.00
2019-01-21T01:56:27.526Z,0.00
2019-01-21T01:57:27.516Z,0.00
2019-01-21T01:58:27.505Z,0.00
2019-01-21T01:59:27.494Z,0.00
2019-01-21T02:00:27.505Z,0.00
2019-01-21T02:01:27.473Z,0.00
2019-01-21T02:02:27.462Z,0.00
2019-01-21T02:03:27.470Z,0.00
2019-01-21T02:04:27.441Z,0.00
2019-01-21T02:05:27.454Z,0.00
2019-01-21T02:06:27.419Z,0.00
2019-01-21T02:07:27.414Z,0.00
2019-01-21T02:08:27.397Z,0.00
2019-01-21T02:09:27.387Z,0.00
2019-01-21T02:10:27.403Z,0.00
2019-01-21T02:11:27.365Z,0.00
2019-01-21T02:12:27.356Z,0.00
2019-01-21T02:13:27.348Z,0.00
2019-01-21T02:14:27.335Z,0.00
2019-01-21T02:15:27.351Z,0.00
2019-01-21T02:16:27.316Z,0.00
2019-01-21T02:17:27.303Z,0.00
2019-01-21T02:18:27.295Z,0.00
2019-01-21T02:19:27.284Z,0.00
2019-01-21T02:20:27.410Z,0.00
2019-01-21T02:21:27.266Z,0.00
2019-01-21T02:22:27.253Z,0.00
2019-01-21T02:23:27.242Z,0.00
2019-01-21T02:24:27.230Z,0.00
2019-01-21T02:25:27.248Z,0.00
2019-01-21T02:26:27.229Z,0.00
2019-01-21T02:27:27.199Z,0.00
2019-01-21T02:28:27.193Z,0.00
2019-01-21T02:29:27.179Z,0.00
2019-01-21T02:30:27.206Z,0.00
2019-01-21T02:31:27.165Z,0.00
2019-01-21T02:32:27.147Z,0.00
2019-01-21T02:33:27.138Z,0.00
2019-01-21T02:34:27.128Z,0.00
2019-01-21T02:35:27.140Z,0.00
2019-01-21T02:36:27.105Z,0.00
2019-01-21T02:37:27.098Z,0.00
2019-01-21T02:38:27.087Z,0.00
2019-01-21T02:39:27.084Z,0.00
2019-01-21T02:40:27.091Z,0.00
2019-01-21T02:41:27.054Z,0.00
2019-01-21T02:42:27.043Z,0.00
2019-01-21T02:43:27.038Z,0.00
2019-01-21T02:44:27.022Z,0.00
2019-01-21T02:45:27.040Z,0.00
2019-01-21T02:46:27.003Z,0.00
2019-01-21T02:47:26.993Z,0.00
2019-01-21T02:48:26.983Z,0.00
2019-01-21T02:49:26.982Z,0.00
2019-01-21T02:50:26.983Z,0.00
2019-01-21T02:51:26.950Z,0.00
2019-01-21T02:52:26.942Z,0.00
2019-01-21T02:53:26.928Z,0.00
2019-01-21T02:54:26.919Z,0.00
2019-01-21T02:55:26.930Z,0.00
2019-01-21T02:56:26.896Z,0.00
2019-01-21T02:57:26.884Z,0.00
2019-01-21T02:58:26.876Z,0.00
2019-01-21T02:59:26.870Z,0.00
2019-01-21T03:00:26.881Z,0.00
2019-01-21T03:01:26.845Z,0.00
2019-01-21T03:02:26.843Z,0.00
2019-01-21T03:03:26.822Z,0.00
2019-01-21T03:04:26.810Z,0.00
2019-01-21T03:05:26.829Z,0.00
2019-01-21T03:06:26.794Z,0.00
2019-01-21T03:07:26.780Z,0.00
2019-01-21T03:08:26.773Z,0.00
2019-01-21T03:09:26.761Z,0.00
2019-01-21T03:10:26.772Z,0.00
2019-01-21T03:11:26.737Z,0.00
2019-01-21T03:12:26.729Z,0.00
2019-01-21T03:13:26.716Z,0.00
2019-01-21T03:14:26.710Z,0.00
2019-01-21T03:15:26.719Z,0.00
2019-01-21T03:16:26.687Z,0.00
2019-01-21T03:17:26.674Z,0.00
2019-01-21T03:18:26.661Z,0.00
2019-01-21T03:19:26.651Z,0.00
2019-01-21T03:20:26.666Z,0.00
2019-01-21T03:21:26.631Z,0.00
2019-01-21T03:22:26.639Z,0.00
2019-01-21T03:23:26.612Z,0.00
2019-01-21T03:24:26.598Z,0.00
2019-01-21T03:25:26.622Z,0.00
2019-01-21T03:26:26.582Z,0.00
2019-01-21T03:27:26.566Z,0.00
2019-01-21T03:28:26.558Z,0.00
2019-01-21T03:29:26.550Z,0.00
2019-01-21T03:30:26.668Z,0.00
2019-01-21T03:31:26.525Z,0.00
2019-01-21T03:32:26.532Z,0.00
2019-01-21T03:33:26.952Z,0.00
2019-01-21T03:34:26.493Z,0.00
2019-01-21T03:35:26.526Z,0.00
2019-01-21T03:36:26.473Z,0.00
2019-01-21T03:37:26.468Z,0.00
2019-01-21T03:38:26.452Z,0.00
2019-01-21T03:39:26.439Z,0.00
2019-01-21T03:40:26.465Z,0.00
2019-01-21T03:41:26.423Z,0.00
2019-01-21T03:42:26.409Z,0.00
2019-01-21T03:43:26.405Z,0.00
2019-01-21T03:44:26.392Z,0.00
2019-01-21T03:45:26.406Z,0.00
2019-01-21T03:46:26.365Z,0.00
2019-01-21T03:47:26.356Z,0.00
2019-01-21T03:48:26.347Z,0.00
2019-01-21T03:49:26.335Z,0.00
2019-01-21T03:50:26.349Z,0.00
2019-01-21T03:51:26.312Z,0.00
2019-01-21T03:52:26.306Z,0.00
2019-01-21T03:53:26.301Z,0.00
2019-01-21T03:54:26.281Z,0.00
2019-01-21T03:55:26.303Z,0.00
2019-01-21T03:56:26.260Z,0.00
2019-01-21T03:57:26.249Z,0.00
2019-01-21T03:58:26.274Z,0.00
2019-01-21T03:59:26.230Z,0.00
2019-01-21T04:00:26.281Z,0.00
2019-01-21T04:01:26.210Z,0.00
2019-01-21T04:02:26.198Z,0.00
2019-01-21T04:03:26.185Z,0.00
2019-01-21T04:04:26.183Z,0.00
2019-01-21T04:05:26.188Z,0.00
2019-01-21T04:06:26.155Z,0.00
2019-01-21T04:07:26.142Z,0.00
2019-01-21T04:08:26.149Z,0.00
2019-01-21T04:09:26.136Z,0.00
2019-01-21T04:10:26.135Z,0.00
2019-01-21T04:11:26.100Z,0.00
2019-01-21T04:12:26.093Z,0.00
2019-01-21T04:13:26.082Z,0.00
2019-01-21T04:14:26.071Z,0.00
2019-01-21T04:15:26.091Z,0.00
2019-01-21T04:16:26.048Z,0.00
2019-01-21T04:17:26.040Z,0.00
2019-01-21T04:18:26.029Z,0.00
2019-01-21T04:19:26.029Z,0.00
2019-01-21T04:20:26.029Z,0.00
2019-01-21T04:21:26.012Z,0.00
2019-01-21T04:22:25.984Z,0.00
2019-01-21T04:23:25.975Z,0.00
2019-01-21T04:24:25.968Z,0.00
2019-01-21T04:25:25.979Z,0.00
2019-01-21T04:26:25.943Z,0.00
2019-01-21T04:27:25.933Z,0.00
2019-01-21T04:28:25.925Z,0.00
2019-01-21T04:29:25.916Z,0.00
2019-01-21T04:30:25.928Z,0.00
2019-01-21T04:31:26.397Z,0.00
2019-01-21T04:32:25.885Z,0.00
2019-01-21T04:33:25.870Z,0.00
2019-01-21T04:34:25.864Z,0.00
2019-01-21T04:35:25.885Z,0.00
2019-01-21T04:36:25.843Z,0.00
2019-01-21T04:37:25.828Z,0.00
2019-01-21T04:38:25.818Z,0.00
2019-01-21T04:39:25.809Z,0.00
2019-01-21T04:40:25.827Z,0.00
2019-01-21T04:41:25.806Z,0.00
2019-01-21T04:42:25.783Z,0.00
2019-01-21T04:43:25.767Z,0.00
2019-01-21T04:44:25.759Z,0.00
2019-01-21T04:45:25.772Z,0.00
2019-01-21T04:46:25.742Z,0.00
2019-01-21T04:47:25.726Z,0.00
2019-01-21T04:48:32.736Z,0.00
2019-01-21T04:49:26.722Z,0.00
2019-01-21T04:50:25.718Z,0.00
2019-01-21T04:51:25.682Z,0.00
2019-01-21T04:52:25.673Z,0.00
2019-01-21T04:53:25.661Z,0.00
2019-01-21T04:54:25.654Z,0.00
2019-01-21T04:55:25.668Z,0.00
2019-01-21T04:56:25.634Z,0.00
2019-01-21T04:57:25.622Z,0.00
2019-01-21T04:58:25.612Z,0.00
2019-01-21T04:59:25.621Z,0.00
2019-01-21T05:00:25.626Z,0.00
2019-01-21T05:01:25.576Z,0.00
2019-01-21T05:02:25.568Z,0.00
2019-01-21T05:03:25.557Z,0.00
2019-01-21T05:04:25.565Z,0.00
2019-01-21T05:05:25.536Z,0.00
2019-01-21T05:06:25.572Z,0.00
2019-01-21T05:07:25.586Z,0.00
2019-01-21T05:08:25.528Z,0.00
2019-01-21T05:09:25.602Z,0.00
2019-01-21T05:10:25.482Z,0.00
2019-01-21T05:11:25.501Z,0.00
2019-01-21T05:12:25.465Z,0.00
2019-01-21T05:13:25.453Z,0.00
2019-01-21T05:14:25.448Z,0.00
2019-01-21T05:15:25.432Z,0.00
2019-01-21T05:16:25.457Z,0.00
2019-01-21T05:17:25.415Z,0.00
2019-01-21T05:18:25.401Z,0.00
2019-01-21T05:19:25.388Z,0.00
2019-01-21T05:20:25.401Z,0.00
2019-01-21T05:21:25.369Z,0.00
2019-01-21T05:22:25.401Z,0.00
2019-01-21T05:23:25.352Z,0.00
2019-01-21T05:24:25.338Z,0.00
2019-01-21T05:25:26.272Z,0.00
2019-01-21T05:26:25.318Z,0.00
2019-01-21T05:27:25.319Z,0.00
2019-01-21T05:28:25.331Z,0.00
2019-01-21T05:29:25.304Z,0.00
2019-01-21T05:30:25.275Z,0.00
2019-01-21T05:31:25.267Z,0.00
2019-01-21T05:32:25.253Z,0.00
2019-01-21T05:33:25.243Z,0.00
2019-01-21T05:34:25.257Z,0.00
2019-01-21T05:35:25.229Z,0.00
2019-01-21T05:36:25.214Z,0.00
2019-01-21T05:37:25.200Z,0.00
2019-01-21T05:38:25.198Z,0.00
2019-01-21T05:39:25.202Z,0.00
2019-01-21T05:40:25.169Z,0.00
2019-01-21T05:41:25.162Z,0.00
2019-01-21T05:42:25.149Z,0.00
2019-01-21T05:43:25.136Z,0.00
2019-01-21T05:44:25.186Z,0.00
2019-01-21T05:45:25.116Z,0.00
2019-01-21T05:46:25.105Z,0.00
2019-01-21T05:47:25.097Z,0.00
2019-01-21T05:48:25.083Z,0.00
2019-01-21T05:49:25.076Z,0.00
2019-01-21T05:50:25.115Z,0.00
2019-01-21T05:51:25.056Z,0.00
2019-01-21T05:52:25.044Z,0.00
2019-01-21T05:53:25.033Z,0.00
2019-01-21T05:54:25.023Z,0.00
2019-01-21T05:55:25.012Z,0.00
2019-01-21T05:56:25.039Z,0.00
2019-01-21T05:57:24.993Z,0.00
2019-01-21T05:58:24.995Z,0.00
2019-01-21T05:59:24.977Z,0.00
2019-01-21T06:00:24.966Z,0.00
2019-01-21T06:01:24.951Z,0.00
2019-01-21T06:02:24.980Z,0.00
2019-01-21T06:03:24.930Z,0.00
2019-01-21T06:04:24.920Z,0.00
2019-01-21T06:05:24.906Z,0.00
2019-01-21T06:06:24.895Z,0.00
2019-01-21T06:07:24.887Z,0.00
2019-01-21T06:08:24.913Z,0.00
2019-01-21T06:09:24.868Z,0.00
2019-01-21T06:10:24.858Z,0.00
2019-01-21T06:11:24.847Z,0.00
2019-01-21T06:12:24.835Z,0.00
2019-01-21T06:13:24.822Z,0.00
2019-01-21T06:14:24.851Z,0.00
2019-01-21T06:15:24.808Z,0.00
2019-01-21T06:16:24.789Z,0.00
2019-01-21T06:17:24.781Z,0.00
2019-01-21T06:18:24.772Z,0.00
2019-01-21T06:19:24.761Z,0.00
2019-01-21T06:20:24.791Z,0.00
2019-01-21T06:21:24.747Z,0.00
2019-01-21T06:22:24.729Z,0.00
2019-01-21T06:23:24.719Z,0.00
2019-01-21T06:24:24.710Z,0.00
2019-01-21T06:25:24.701Z,0.00
2019-01-21T06:26:24.723Z,0.00
2019-01-21T06:27:24.676Z,0.00
2019-01-21T06:28:24.671Z,0.00
2019-01-21T06:29:24.656Z,0.00
2019-01-21T06:30:24.645Z,0.00
2019-01-21T06:31:24.636Z,0.00
2019-01-21T06:32:24.660Z,0.00
2019-01-21T06:33:24.617Z,0.00
2019-01-21T06:34:24.604Z,0.00
2019-01-21T06:35:24.593Z,0.00
2019-01-21T06:36:24.582Z,0.00
2019-01-21T06:37:24.571Z,0.00
2019-01-21T06:38:24.597Z,4.00
2019-01-21T06:39:24.553Z,4.00
2019-01-21T06:40:24.538Z,0.00
2019-01-21T06:41:24.528Z,0.00
2019-01-21T06:42:24.518Z,4.00
2019-01-21T06:43:24.510Z,4.00
2019-01-21T06:44:24.547Z,0.00
2019-01-21T06:45:24.485Z,4.00
2019-01-21T06:46:24.480Z,0.00
2019-01-21T06:47:24.465Z,4.00
2019-01-21T06:48:24.458Z,4.00
2019-01-21T06:49:24.445Z,4.00
2019-01-21T06:50:24.471Z,8.00
2019-01-21T06:51:24.424Z,8.00
2019-01-21T06:52:24.414Z,8.00
2019-01-21T06:53:24.414Z,12.00
2019-01-21T06:54:24.391Z,12.00
2019-01-21T06:55:24.382Z,12.00
2019-01-21T06:56:24.410Z,12.00
2019-01-21T06:57:24.360Z,12.00
2019-01-21T06:58:24.350Z,16.00
2019-01-21T06:59:24.340Z,16.00
2019-01-21T07:00:24.329Z,20.00
2019-01-21T07:01:24.320Z,20.00
2019-01-21T07:02:24.446Z,20.00
2019-01-21T07:03:24.299Z,24.00
2019-01-21T07:04:24.289Z,24.00
2019-01-21T07:05:24.279Z,28.00
2019-01-21T07:06:24.265Z,28.00
2019-01-21T07:07:24.261Z,28.00
2019-01-21T07:08:24.289Z,32.00
2019-01-21T07:09:24.237Z,32.00
2019-01-21T07:10:24.227Z,36.00
2019-01-21T07:11:24.214Z,40.00
2019-01-21T07:12:24.203Z,44.00
2019-01-21T07:13:24.191Z,44.00
2019-01-21T07:14:24.217Z,44.00
2019-01-21T07:15:24.178Z,44.00
2019-01-21T07:16:24.160Z,48.00
2019-01-21T07:17:24.150Z,56.00
2019-01-21T07:18:26.026Z,60.00
2019-01-21T07:19:24.130Z,68.00
2019-01-21T07:20:24.165Z,76.00
2019-01-21T07:21:24.108Z,84.00
2019-01-21T07:22:24.098Z,80.00
2019-01-21T07:23:24.086Z,88.00
2019-01-21T07:24:24.077Z,96.00
2019-01-21T07:25:24.068Z,96.00
2019-01-21T07:26:24.093Z,100.00
2019-01-21T07:27:24.046Z,100.00
2019-01-21T07:28:24.034Z,104.00
2019-01-21T07:29:24.024Z,108.00
2019-01-21T07:30:24.018Z,112.00
2019-01-21T07:31:24.006Z,112.00
2019-01-21T07:32:24.034Z,112.00
2019-01-21T07:33:23.982Z,116.00
2019-01-21T07:34:23.972Z,120.00
2019-01-21T07:35:23.963Z,120.00
2019-01-21T07:36:23.952Z,128.00
2019-01-21T07:37:23.941Z,140.00
2019-01-21T07:38:23.969Z,144.00
2019-01-21T07:39:23.921Z,148.00
2019-01-21T07:40:23.920Z,144.00
2019-01-21T07:41:23.899Z,144.00
2019-01-21T07:42:23.889Z,148.00
2019-01-21T07:43:23.880Z,152.00
2019-01-21T07:44:23.893Z,160.00
2019-01-21T07:45:23.858Z,176.00
2019-01-21T07:46:23.846Z,204.00
2019-01-21T07:47:23.835Z,208.00
2019-01-21T07:48:23.825Z,200.00
2019-01-21T07:49:23.851Z,200.00
2019-01-21T07:50:23.808Z,204.00
2019-01-21T07:51:23.792Z,208.00
2019-01-21T07:52:23.782Z,208.00
2019-01-21T07:53:23.810Z,212.00
2019-01-21T07:54:23.781Z,224.00
2019-01-21T07:55:23.788Z,244.00
2019-01-21T07:56:23.741Z,260.00
2019-01-21T07:57:23.731Z,280.00
2019-01-21T07:58:23.724Z,300.00
2019-01-21T07:59:23.712Z,280.00
2019-01-21T08:00:23.701Z,264.00
2019-01-21T08:01:23.730Z,256.00
2019-01-21T08:02:23.683Z,280.00
2019-01-21T08:03:23.682Z,268.00
2019-01-21T08:04:23.660Z,292.00
2019-01-21T08:05:23.650Z,292.00
2019-01-21T08:06:23.637Z,292.00
2019-01-21T08:07:23.667Z,308.00
2019-01-21T08:08:23.624Z,352.00
2019-01-21T08:09:23.606Z,368.00
2019-01-21T08:10:23.595Z,376.00
2019-01-21T08:11:23.585Z,384.00
2019-01-21T08:12:23.576Z,408.00
2019-01-21T08:13:23.603Z,392.00
2019-01-21T08:14:23.552Z,372.00
2019-01-21T08:15:26.291Z,384.00
2019-01-21T08:16:23.530Z,412.00
2019-01-21T08:17:23.522Z,396.00
2019-01-21T08:18:23.513Z,340.00
2019-01-21T08:19:24.248Z,336.00
2019-01-21T08:20:23.488Z,324.00
2019-01-21T08:21:23.481Z,316.00
2019-01-21T08:22:23.469Z,312.00
2019-01-21T08:23:23.458Z,332.00
2019-01-21T08:24:23.449Z,364.00
2019-01-21T08:25:23.463Z,392.00
2019-01-21T08:26:23.442Z,428.00
2019-01-21T08:27:23.416Z,444.00
2019-01-21T08:28:23.406Z,424.00
2019-01-21T08:29:23.397Z,392.00
2019-01-21T08:30:23.409Z,388.00
2019-01-21T08:31:23.374Z,412.00
2019-01-21T08:32:23.363Z,424.00
2019-01-21T08:33:23.352Z,444.00
2019-01-21T08:34:23.344Z,528.00
2019-01-21T08:35:23.366Z,580.00
2019-01-21T08:36:23.340Z,588.00
2019-01-21T08:37:23.311Z,580.00
2019-01-21T08:38:23.301Z,544.00
2019-01-21T08:39:23.294Z,516.00
2019-01-21T08:40:23.281Z,480.00
2019-01-21T08:41:23.293Z,492.00
2019-01-21T08:42:23.257Z,540.00
2019-01-21T08:43:23.248Z,628.00
2019-01-21T08:44:23.237Z,692.00
2019-01-21T08:45:23.227Z,684.00
2019-01-21T08:46:23.259Z,660.00
2019-01-21T08:47:23.687Z,604.00
2019-01-21T08:48:23.194Z,564.00
2019-01-21T08:49:23.186Z,556.00
2019-01-21T08:50:23.175Z,560.00
2019-01-21T08:51:23.196Z,596.00
2019-01-21T08:52:23.151Z,616.00
2019-01-21T08:53:23.143Z,620.00
2019-01-21T08:54:23.132Z,612.00
2019-01-21T08:55:23.122Z,652.00
2019-01-21T08:56:23.115Z,660.00
2019-01-21T08:57:23.154Z,680.00
2019-01-21T08:58:23.090Z,716.00
2019-01-21T08:59:23.300Z,820.00
2019-01-21T09:00:23.068Z,768.00
2019-01-21T09:01:23.059Z,688.00
2019-01-21T09:02:23.848Z,652.00
2019-01-21T09:03:23.071Z,668.00
2019-01-21T09:04:23.026Z,680.00
2019-01-21T09:05:23.020Z,676.00
2019-01-21T09:06:23.007Z,624.00
2019-01-21T09:07:22.996Z,588.00
2019-01-21T09:08:23.167Z,576.00
2019-01-21T09:09:23.018Z,576.00
2019-01-21T09:10:22.965Z,588.00
2019-01-21T09:11:22.957Z,596.00
2019-01-21T09:12:22.949Z,624.00
2019-01-21T09:13:22.935Z,640.00
2019-01-21T09:14:22.935Z,704.00
2019-01-21T09:15:22.938Z,712.00
2019-01-21T09:16:22.902Z,644.00
2019-01-21T09:17:22.893Z,620.00
2019-01-21T09:18:22.883Z,620.00
2019-01-21T09:19:22.873Z,684.00
2019-01-21T09:20:22.886Z,808.00
2019-01-21T09:21:22.852Z,816.00
2019-01-21T09:22:22.846Z,760.00
2019-01-21T09:23:22.832Z,764.00
2019-01-21T09:24:22.822Z,796.00
2019-01-21T09:25:22.847Z,932.00
2019-01-21T09:26:22.803Z,1112.00
2019-01-21T09:27:22.788Z,1216.00
2019-01-21T09:28:22.782Z,1060.00
2019-01-21T09:29:22.767Z,876.00
2019-01-21T09:30:22.759Z,780.00
2019-01-21T09:31:22.788Z,808.00
2019-01-21T09:32:22.757Z,852.00
2019-01-21T09:33:22.725Z,944.00
2019-01-21T09:34:22.719Z,952.00
2019-01-21T09:35:22.710Z,964.00
2019-01-21T09:36:22.697Z,1068.00
2019-01-21T09:37:22.723Z,1020.00
2019-01-21T09:38:22.678Z,932.00
2019-01-21T09:39:22.668Z,844.00
2019-01-21T09:40:22.658Z,760.00
2019-01-21T09:41:22.644Z,740.00
2019-01-21T09:42:22.634Z,700.00
2019-01-21T09:43:22.661Z,692.00
2019-01-21T09:44:22.618Z,680.00
2019-01-21T09:45:22.604Z,696.00
2019-01-21T09:46:22.595Z,704.00
2019-01-21T09:47:22.584Z,760.00
2019-01-21T09:48:22.572Z,868.00
2019-01-21T09:49:22.586Z,964.00
2019-01-21T09:50:22.612Z,988.00
2019-01-21T09:51:22.542Z,976.00
2019-01-21T09:52:22.535Z,964.00
2019-01-21T09:53:22.535Z,972.00
2019-01-21T09:54:22.535Z,992.00
2019-01-21T09:55:22.521Z,1024.00
2019-01-21T09:56:22.492Z,1004.00
2019-01-21T09:57:22.479Z,968.00
2019-01-21T09:58:22.474Z,912.00
2019-01-21T09:59:22.497Z,912.00
2019-01-21T10:00:22.448Z,996.00
2019-01-21T10:01:22.438Z,980.00
2019-01-21T10:02:22.428Z,988.00
2019-01-21T10:03:22.417Z,952.00
2019-01-21T10:04:22.415Z,932.00
2019-01-21T10:05:22.441Z,988.00
2019-01-21T10:06:22.384Z,964.00
2019-01-21T10:07:22.376Z,928.00
2019-01-21T10:08:22.369Z,984.00
2019-01-21T10:09:22.356Z,1064.00
2019-01-21T10:10:22.367Z,1100.00
2019-01-21T10:11:22.335Z,1080.00
2019-01-21T10:12:22.323Z,1036.00
2019-01-21T10:13:22.316Z,980.00
2019-01-21T10:14:22.304Z,948.00
2019-01-21T10:15:22.317Z,940.00
2019-01-21T10:16:22.282Z,960.00
2019-01-21T10:17:22.273Z,1024.00
2019-01-21T10:18:22.271Z,1096.00
2019-01-21T10:19:22.260Z,1192.00
2019-01-21T10:20:22.279Z,1384.00
2019-01-21T10:21:22.233Z,1468.00
2019-01-21T10:22:22.221Z,1428.00
2019-01-21T10:23:22.212Z,1340.00
2019-01-21T10:24:22.199Z,1248.00
2019-01-21T10:25:22.192Z,1272.00
2019-01-21T10:26:22.203Z,1376.00
2019-01-21T10:27:22.170Z,1500.00
2019-01-21T10:28:22.161Z,1508.00
2019-01-21T10:29:22.151Z,1512.00
2019-01-21T10:30:22.139Z,1584.00
2019-01-21T10:31:22.176Z,1680.00
2019-01-21T10:32:22.118Z,1820.00
2019-01-21T10:33:22.111Z,1824.00
2019-01-21T10:34:22.099Z,1756.00
2019-01-21T10:35:22.090Z,1512.00
2019-01-21T10:36:22.077Z,1236.00
2019-01-21T10:37:22.097Z,1232.00
2019-01-21T10:38:22.055Z,1364.00
2019-01-21T10:39:22.048Z,1516.00
2019-01-21T10:40:22.036Z,1680.00
2019-01-21T10:41:22.029Z,1692.00
2019-01-21T10:42:22.041Z,1636.00
2019-01-21T10:43:22.007Z,1504.00
2019-01-21T10:44:21.996Z,1632.00
2019-01-21T10:45:23.186Z,1628.00
2019-01-21T10:46:21.973Z,1568.00
2019-01-21T10:47:21.997Z,1472.00
2019-01-21T10:48:21.958Z,1648.00
2019-01-21T10:49:21.944Z,1740.00
2019-01-21T10:50:21.933Z,1876.00
2019-01-21T10:51:21.924Z,1928.00
2019-01-21T10:52:21.911Z,1812.00
2019-01-21T10:53:21.930Z,2068.00
2019-01-21T10:54:21.891Z,2384.00
2019-01-21T10:55:21.879Z,2024.00
2019-01-21T10:56:21.870Z,1568.00
2019-01-21T10:57:21.861Z,1512.00
2019-01-21T10:58:21.884Z,1536.00
2019-01-21T10:59:21.839Z,1464.00
2019-01-21T11:00:21.862Z,1356.00
2019-01-21T11:01:21.815Z,1396.00
2019-01-21T11:02:21.807Z,1332.00
2019-01-21T11:03:21.831Z,1196.00
2019-01-21T11:04:21.794Z,1296.00
2019-01-21T11:05:21.776Z,1440.00
2019-01-21T11:06:21.764Z,1624.00
2019-01-21T11:07:21.754Z,1624.00
2019-01-21T11:08:21.747Z,1376.00
2019-01-21T11:09:26.655Z,1428.00
2019-01-21T11:10:22.720Z,1444.00
2019-01-21T11:11:21.713Z,1496.00
2019-01-21T11:12:21.701Z,1432.00
2019-01-21T11:13:21.693Z,1388.00
2019-01-21T11:14:21.680Z,1592.00
2019-01-21T11:15:21.692Z,1444.00
2019-01-21T11:16:21.659Z,1456.00
2019-01-21T11:17:21.650Z,1376.00
2019-01-21T11:18:21.640Z,1424.00
2019-01-21T11:19:22.125Z,1684.00
2019-01-21T11:20:21.641Z,1640.00
2019-01-21T11:21:21.607Z,1532.00
2019-01-21T11:22:21.596Z,1456.00
2019-01-21T11:23:21.588Z,1536.00
2019-01-21T11:24:21.588Z,1788.00
2019-01-21T11:25:21.601Z,1792.00
2019-01-21T11:26:21.556Z,1660.00
2019-01-21T11:27:21.546Z,1584.00
2019-01-21T11:28:21.538Z,1568.00
2019-01-21T11:29:21.525Z,1780.00
2019-01-21T11:30:21.530Z,1780.00
2019-01-21T11:31:23.659Z,1564.00
2019-01-21T11:32:21.492Z,1848.00
2019-01-21T11:33:21.482Z,1976.00
2019-01-21T11:34:21.471Z,1776.00
2019-01-21T11:35:21.464Z,1952.00
2019-01-21T11:36:21.474Z,1812.00
2019-01-21T11:37:21.442Z,2084.00
2019-01-21T11:38:21.427Z,2336.00
2019-01-21T11:39:21.421Z,1792.00
2019-01-21T11:40:21.407Z,1808.00
2019-01-21T11:41:21.430Z,1964.00
2019-01-21T11:42:21.389Z,1928.00
2019-01-21T11:43:21.378Z,1644.00
2019-01-21T11:44:21.364Z,1732.00
2019-01-21T11:45:21.355Z,2112.00
2019-01-21T11:46:21.344Z,2368.00
2019-01-21T11:47:21.355Z,2332.00
2019-01-21T11:48:21.322Z,1900.00
2019-01-21T11:49:21.311Z,1832.00
2019-01-21T11:50:21.301Z,2084.00
2019-01-21T11:51:21.287Z,1964.00
2019-01-21T11:52:21.305Z,1896.00
2019-01-21T11:53:21.267Z,1808.00
2019-01-21T11:54:21.256Z,1684.00
2019-01-21T11:55:21.284Z,1752.00
2019-01-21T11:56:21.234Z,1892.00
2019-01-21T11:57:21.271Z,2156.00
2019-01-21T11:58:21.213Z,2188.00
2019-01-21T11:59:21.205Z,1656.00
2019-01-21T12:00:21.191Z,1700.00
2019-01-21T12:01:21.184Z,1708.00
2019-01-21T12:02:21.172Z,1552.00
2019-01-21T12:03:23.669Z,1720.00
2019-01-21T12:04:21.150Z,1904.00
2019-01-21T12:05:21.142Z,2220.00
2019-01-21T12:06:21.130Z,2620.00
2019-01-21T12:07:21.119Z,2092.00
2019-01-21T12:08:21.109Z,2596.00
2019-01-21T12:09:21.148Z,3208.00
2019-01-21T12:10:21.090Z,2624.00
2019-01-21T12:11:21.079Z,2524.00
2019-01-21T12:12:21.068Z,2352.00
2019-01-21T12:13:21.056Z,2392.00
2019-01-21T12:14:21.050Z,2820.00
2019-01-21T12:15:21.075Z,3388.00
2019-01-21T12:16:21.035Z,2504.00
2019-01-21T12:17:21.016Z,2612.00
2019-01-21T12:18:21.005Z,2808.00
2019-01-21T12:19:20.993Z,3988.00
2019-01-21T12:20:20.982Z,4868.00
2019-01-21T12:21:21.007Z,5692.00
2019-01-21T12:22:20.962Z,6028.00
2019-01-21T12:23:20.951Z,5428.00
2019-01-21T12:24:20.943Z,5768.00
2019-01-21T12:25:20.930Z,4548.00
2019-01-21T12:26:20.921Z,4108.00
2019-01-21T12:27:20.944Z,5956.00
2019-01-21T12:28:20.897Z,5524.00
2019-01-21T12:29:20.889Z,6092.00
2019-01-21T12:30:20.876Z,5188.00
2019-01-21T12:31:20.867Z,4012.00
2019-01-21T12:32:20.853Z,4580.00
2019-01-21T12:33:20.880Z,4036.00
2019-01-21T12:34:20.834Z,4304.00
2019-01-21T12:35:20.822Z,4932.00
2019-01-21T12:36:20.812Z,5284.00
2019-01-21T12:37:20.801Z,4084.00
2019-01-21T12:38:20.789Z,4960.00
2019-01-21T12:39:20.816Z,3360.00
2019-01-21T12:40:20.774Z,2916.00
2019-01-21T12:41:21.701Z,2672.00
2019-01-21T12:42:20.748Z,2556.00
2019-01-21T12:43:20.742Z,2892.00
2019-01-21T12:44:20.739Z,3568.00
2019-01-21T12:45:20.743Z,4756.00
2019-01-21T12:46:20.707Z,5504.00
2019-01-21T12:47:20.696Z,5824.00
2019-01-21T12:48:20.685Z,5608.00
2019-01-21T12:49:20.793Z,3052.00
2019-01-21T12:50:24.024Z,4744.00